PABE/BET METAR and TAF weather

Enter ICAO airport designator
Station Type Date Time Source
PABE METAR 2018/12/15 03:53 UTC NOAA

PABE 150353Z 34007KT 10SM OVC015 M19/M21 A2941 RMK AO2 SLP963 T11941211


Station Type Date Time Source
PABE Decoded METAR 2018/12/15 03:53 UTC NOAA

BETHEL AIRPORT, AK, United States (PABE) 60-47N 161-50W 46M
Dec 14, 2018 - 10:53 PM EST / 2018.12.15 0353 UTC
Wind: from the NNW (340 degrees) at 8 MPH (7 KT):0
Visibility: 10 mile(s):0
Sky conditions: overcast
Temperature: -2.9 F (-19.4 C)
Windchill: -18 F (-28 C):2
Dew Point: -6.0 F (-21.1 C)
Relative Humidity: 86%
Pressure (altimeter): 29.41 in. Hg (995 hPa)
ob: PABE 150353Z 34007KT 10SM OVC015 M19/M21 A2941 RMK AO2 SLP963 T11941211
cycle: 4

Station Type Date Time Source
PABE TAF 2018/12/14 18:36 UTC NOAA

TAF PABE 141733Z 1418/1518 36010KT P6SM SKC


Example: see airport list